Airport details for: LKTB (Czech Republic)

Metar

LKTB 111300Z 16010G23KT 9999 FEW025 09/05 Q0991 NOSIG

General details

ICAO: LKTB
IATA: BRQ
Name (city): Turany
Major:
Country: Czech Republic
vACC: Czech vACC
Description:

Web: http://www.vacc-cz.org/airports/lktb

Scenery links:
FS9 scenery: Download
FSX/P3D scenery: Download
XP scenery:
Elevation: 778 ft.
Transition altitude: 5000 ft.
MSA: 8600 ft.
Latitude: 49.151389
Longitude: 16.693889
LKTB Charts
LKTB Notams
LKTB Online stations

Runways

Number Course Length Elevation Lat Lon ILS ILS freq ILS FAC GP
09 94° 3281ft / 1000 m 774ft 49.151292 16.685739 - - 3.0°
10 94° 8694ft / 2650 m 764ft 49.152872 16.67587 - - 3.0°
27 274° 3281ft / 1000 m 764ft 49.150125 16.699164 - - 3.0°
28 274° 8694ft / 2650 m 771ft 49.149756 16.711897 111.5 274° 3.0°